createdAt,value
2022-09-09T00:01:43.161Z,1.25
2022-09-09T00:04:21.666Z,1.40
2022-09-09T00:07:00.904Z,1.60
2022-09-09T00:09:29.941Z,1.40
2022-09-09T00:12:05.982Z,1.85
2022-09-09T00:14:40.137Z,1.60
2022-09-09T00:17:26.266Z,1.60
2022-09-09T00:20:05.632Z,1.70
2022-09-09T00:22:33.283Z,1.40
2022-09-09T00:25:13.970Z,1.40
2022-09-09T00:27:49.752Z,1.55
2022-09-09T00:30:33.159Z,1.48
2022-09-09T00:33:03.765Z,1.83
2022-09-09T00:35:37.926Z,1.80
2022-09-09T00:38:14.917Z,1.70
2022-09-09T00:40:50.816Z,1.50
2022-09-09T00:43:32.219Z,1.40
2022-09-09T00:46:11.613Z,1.40
2022-09-09T00:49:16.769Z,1.12
2022-09-09T00:51:51.269Z,1.30
2022-09-09T00:54:49.994Z,1.20
2022-09-09T00:57:30.245Z,1.20
2022-09-09T01:00:19.981Z,1.37
2022-09-09T01:03:13.912Z,1.50
2022-09-09T01:05:51.845Z,1.42
2022-09-09T01:08:51.127Z,1.27
2022-09-09T01:11:38.591Z,1.40
2022-09-09T01:14:15.283Z,1.40
2022-09-09T01:16:43.315Z,1.58
2022-09-09T01:19:18.189Z,1.23
2022-09-09T01:22:00.280Z,1.55
2022-09-09T01:24:40.638Z,1.48
2022-09-09T01:27:10.482Z,1.60
2022-09-09T01:29:38.858Z,1.73
2022-09-09T01:32:44.510Z,1.60
2022-09-09T01:35:19.888Z,1.87
2022-09-09T01:37:47.382Z,1.55
2022-09-09T01:40:15.118Z,1.60
2022-09-09T01:42:42.647Z,1.67
2022-09-09T01:45:10.459Z,1.58
2022-09-09T01:47:38.176Z,1.58
2022-09-09T01:50:08.810Z,1.50
2022-09-09T01:52:37.296Z,1.30
2022-09-09T01:55:06.605Z,1.40
2022-09-09T01:57:44.581Z,1.50
2022-09-09T02:00:14.110Z,1.60
2022-09-09T02:03:02.489Z,2.20
2022-09-09T02:05:40.610Z,1.60
2022-09-09T02:08:11.986Z,1.65
2022-09-09T02:11:08.125Z,1.50
2022-09-09T02:13:37.930Z,1.60
2022-09-09T02:16:15.547Z,1.60
2022-09-09T02:18:51.283Z,1.58
2022-09-09T02:21:20.524Z,1.60
2022-09-09T02:23:48.984Z,1.50
2022-09-09T02:26:21.205Z,1.70
2022-09-09T02:28:51.294Z,1.67
2022-09-09T02:31:21.286Z,1.50
2022-09-09T02:33:53.772Z,1.70
2022-09-09T02:36:31.172Z,1.55
2022-09-09T02:38:58.715Z,1.70
2022-09-09T02:41:38.131Z,1.67
2022-09-09T02:44:14.913Z,1.77
2022-09-09T02:46:54.949Z,1.65
2022-09-09T02:49:33.799Z,1.90
2022-09-09T02:52:16.385Z,1.77
2022-09-09T02:57:24.828Z,2.10
2022-09-09T02:59:53.256Z,2.08
2022-09-09T03:02:20.975Z,1.60
2022-09-09T03:04:52.668Z,1.67
2022-09-09T03:07:20.810Z,1.60
2022-09-09T03:09:49.099Z,2.10
2022-09-09T03:12:17.266Z,1.98
2022-09-09T03:14:46.852Z,2.03
2022-09-09T03:17:14.752Z,1.90
2022-09-09T03:19:44.996Z,2.00
2022-09-09T03:22:14.236Z,1.83
2022-09-09T03:24:42.571Z,2.17
2022-09-09T03:27:10.307Z,2.20
2022-09-09T03:29:37.900Z,2.50
2022-09-09T03:32:05.865Z,2.50
2022-09-09T03:34:33.385Z,2.30
2022-09-09T03:37:00.955Z,2.60
2022-09-09T03:39:30.043Z,2.67
2022-09-09T03:41:59.839Z,2.67
2022-09-09T03:44:27.180Z,2.80
2022-09-09T03:46:55.724Z,2.62
2022-09-09T03:49:24.222Z,2.72
2022-09-09T03:51:51.572Z,2.65
2022-09-09T03:54:19.193Z,3.00
2022-09-09T03:56:46.587Z,2.97
2022-09-09T03:59:15.333Z,2.50
2022-09-09T04:01:43.653Z,2.95
2022-09-09T04:04:13.016Z,3.05
2022-09-09T04:06:40.419Z,3.22
2022-09-09T04:09:08.027Z,3.03
2022-09-09T04:11:35.916Z,3.03
2022-09-09T04:14:03.472Z,2.83
2022-09-09T04:16:31.179Z,3.22
2022-09-09T04:19:00.616Z,3.12
2022-09-09T04:21:28.006Z,2.97
2022-09-09T04:23:55.658Z,3.42
2022-09-09T04:26:23.830Z,3.33
2022-09-09T04:28:51.414Z,3.72
2022-09-09T04:31:22.460Z,3.15
2022-09-09T04:33:53.636Z,3.42
2022-09-09T04:36:22.111Z,3.30
2022-09-09T04:38:50.216Z,3.70
2022-09-09T04:41:18.077Z,3.30
2022-09-09T04:43:46.037Z,3.58
2022-09-09T04:46:14.384Z,3.40
2022-09-09T04:48:41.784Z,3.30
2022-09-09T04:51:12.912Z,3.30
2022-09-09T04:53:41.353Z,3.58
2022-09-09T04:56:11.189Z,3.50
2022-09-09T04:58:39.796Z,3.10
2022-09-09T05:01:12.127Z,3.25
2022-09-09T05:03:39.981Z,3.15
2022-09-09T05:06:10.630Z,3.08
2022-09-09T05:08:38.981Z,3.55
2022-09-09T05:11:16.466Z,3.35
2022-09-09T05:13:45.090Z,2.92
2022-09-09T05:16:13.814Z,3.30
2022-09-09T05:18:41.644Z,3.00
2022-09-09T05:21:10.267Z,3.17
2022-09-09T05:23:38.519Z,3.25
2022-09-09T05:26:07.430Z,3.37
2022-09-09T05:28:36.348Z,3.10
2022-09-09T05:31:06.337Z,3.03
2022-09-09T05:33:34.227Z,3.05
2022-09-09T05:36:05.165Z,3.47
2022-09-09T05:38:36.491Z,3.12
2022-09-09T05:41:04.526Z,2.92
2022-09-09T05:43:33.352Z,3.10
2022-09-09T05:46:08.893Z,2.90
2022-09-09T05:48:41.281Z,3.83
2022-09-09T05:51:13.532Z,3.33
2022-09-09T05:53:41.171Z,3.45
2022-09-09T05:56:15.151Z,3.00
2022-09-09T05:59:07.076Z,3.20
2022-09-09T06:01:36.344Z,3.50
2022-09-09T06:04:04.751Z,3.72
2022-09-09T06:06:37.409Z,3.10
2022-09-09T06:09:07.673Z,3.00
2022-09-09T06:11:37.034Z,2.70
2022-09-09T06:14:05.099Z,2.85
2022-09-09T06:16:35.746Z,2.90
2022-09-09T06:19:06.919Z,3.03
2022-09-09T06:21:39.461Z,2.90
2022-09-09T06:26:37.632Z,2.67
2022-09-09T06:29:06.003Z,2.92
2022-09-09T06:31:35.461Z,2.97
2022-09-09T06:34:08.444Z,2.30
2022-09-09T06:39:12.169Z,2.22
2022-09-09T06:41:43.348Z,1.92
2022-09-09T06:44:14.432Z,2.12
2022-09-09T06:46:42.383Z,2.20
2022-09-09T06:49:10.597Z,2.30
2022-09-09T06:51:43.966Z,2.75
2022-09-09T06:54:12.810Z,2.17
2022-09-09T06:56:43.926Z,2.40
2022-09-09T06:59:13.020Z,2.30
2022-09-09T07:01:43.008Z,2.35
2022-09-09T07:04:12.001Z,1.95
2022-09-09T07:06:44.065Z,2.10
2022-09-09T07:09:14.214Z,1.83
2022-09-09T07:11:50.019Z,2.03
2022-09-09T07:14:17.776Z,2.20
2022-09-09T07:16:47.026Z,1.75
2022-09-09T07:19:15.575Z,1.65
2022-09-09T07:21:43.891Z,1.73
2022-09-09T07:24:11.849Z,1.60
2022-09-09T07:26:40.987Z,2.00
2022-09-09T07:29:09.222Z,2.17
2022-09-09T07:31:38.867Z,2.10
2022-09-09T07:34:06.914Z,1.90
2022-09-09T07:36:38.807Z,1.85
2022-09-09T07:39:14.551Z,2.22
2022-09-09T07:41:47.867Z,1.52
2022-09-09T07:44:18.438Z,1.58
2022-09-09T07:46:46.902Z,1.52
2022-09-09T07:49:15.634Z,1.40
2022-09-09T07:51:46.195Z,1.40
2022-09-09T07:54:16.101Z,1.10
2022-09-09T07:56:45.147Z,1.27
2022-09-09T07:59:13.344Z,1.02
2022-09-09T08:01:44.155Z,1.00
2022-09-09T08:04:18.095Z,1.17
2022-09-09T08:06:48.591Z,1.10
2022-09-09T08:09:17.119Z,0.95
2022-09-09T08:11:45.122Z,1.12
2022-09-09T08:14:13.362Z,1.30
2022-09-09T08:16:45.507Z,1.10
2022-09-09T08:19:15.216Z,1.10
2022-09-09T08:21:44.461Z,1.23
2022-09-09T08:24:13.430Z,1.23
2022-09-09T08:26:43.134Z,1.10
2022-09-09T08:29:12.810Z,1.00
2022-09-09T08:31:45.451Z,1.00
2022-09-09T08:34:13.264Z,1.10
2022-09-09T08:36:43.410Z,1.10
2022-09-09T08:39:13.132Z,0.75
2022-09-09T08:42:14.827Z,0.73
2022-09-09T08:45:16.053Z,1.00
2022-09-09T08:48:16.560Z,0.97
2022-09-09T08:50:44.323Z,0.82
2022-09-09T08:53:25.930Z,0.70
2022-09-09T08:56:08.251Z,0.52
2022-09-09T08:58:47.611Z,0.70
2022-09-09T09:01:47.307Z,0.62
2022-09-09T09:04:39.651Z,0.90
2022-09-09T09:07:22.735Z,0.70
2022-09-09T09:10:39.850Z,0.60
2022-09-09T09:13:05.012Z,0.50
2022-09-09T09:15:37.663Z,0.73
2022-09-09T09:18:06.235Z,0.65
2022-09-09T09:20:54.837Z,0.75
2022-09-09T09:23:24.818Z,0.47
2022-09-09T09:26:00.838Z,0.60
2022-09-09T09:28:31.374Z,0.60
2022-09-09T09:33:45.532Z,0.70
2022-09-09T09:36:16.199Z,0.90
2022-09-09T09:41:46.691Z,0.60
2022-09-09T09:44:32.788Z,0.43
2022-09-09T09:47:11.762Z,0.65
2022-09-09T09:49:39.198Z,0.40
2022-09-09T09:52:08.650Z,1.17
2022-09-09T09:54:43.017Z,1.10
2022-09-09T09:57:12.583Z,0.90
2022-09-09T09:59:41.035Z,0.70
2022-09-09T10:02:17.800Z,0.52
2022-09-09T10:04:46.394Z,0.30
2022-09-09T10:07:19.377Z,0.57
2022-09-09T10:09:51.440Z,0.40
2022-09-09T10:12:27.151Z,0.32
2022-09-09T10:15:09.218Z,0.43
2022-09-09T10:18:14.000Z,0.50
2022-09-09T10:21:03.762Z,0.50
2022-09-09T10:23:42.840Z,0.77
2022-09-09T10:26:17.236Z,0.47
2022-09-09T10:29:02.684Z,0.40
2022-09-09T10:32:00.145Z,0.40
2022-09-09T10:35:03.052Z,0.45
2022-09-09T10:37:37.756Z,0.30
2022-09-09T10:40:33.740Z,0.50
2022-09-09T10:43:40.803Z,0.30
2022-09-09T10:46:29.771Z,0.40
2022-09-09T10:49:28.546Z,0.32
2022-09-09T10:52:20.697Z,0.30
2022-09-09T10:55:08.207Z,0.40
2022-09-09T10:57:52.234Z,0.40
2022-09-09T11:00:22.090Z,0.30
2022-09-09T11:03:03.011Z,0.30
2022-09-09T11:05:50.535Z,0.30
2022-09-09T11:11:12.914Z,0.43
2022-09-09T11:13:52.562Z,0.40
2022-09-09T11:16:29.345Z,0.25
2022-09-09T11:19:03.424Z,0.30
2022-09-09T11:21:37.359Z,0.77
2022-09-09T11:24:11.715Z,1.20
2022-09-09T11:26:46.190Z,0.60
2022-09-09T11:29:45.004Z,0.55
2022-09-09T11:32:48.976Z,0.50
2022-09-09T11:35:36.957Z,0.50
2022-09-09T11:38:10.505Z,0.60
2022-09-09T11:40:38.039Z,0.30
2022-09-09T11:43:13.601Z,0.50
2022-09-09T11:45:44.528Z,0.77
2022-09-09T11:48:33.499Z,0.60
2022-09-09T11:51:16.867Z,0.60
2022-09-09T11:53:50.919Z,0.65
2022-09-09T11:56:35.623Z,0.47
2022-09-09T11:59:04.493Z,0.55
2022-09-09T12:01:38.694Z,0.45
2022-09-09T12:04:06.193Z,0.40
2022-09-09T12:06:42.643Z,0.60
2022-09-09T12:09:20.937Z,0.47
2022-09-09T12:11:48.239Z,0.50
2022-09-09T12:14:42.061Z,0.40
2022-09-09T12:17:16.556Z,0.52
2022-09-09T12:19:44.157Z,0.45
2022-09-09T12:22:39.402Z,0.40
2022-09-09T12:25:20.182Z,0.40
2022-09-09T12:28:12.160Z,0.40
2022-09-09T12:30:49.895Z,0.40
2022-09-09T12:33:20.031Z,0.70
2022-09-09T12:35:54.315Z,0.30
2022-09-09T12:38:34.053Z,0.43
2022-09-09T12:41:01.620Z,0.40
2022-09-09T12:43:29.742Z,0.30
2022-09-09T12:46:09.911Z,0.52
2022-09-09T12:48:40.153Z,0.30
2022-09-09T12:51:18.671Z,0.50
2022-09-09T12:53:47.039Z,0.50
2022-09-09T12:56:22.634Z,0.40
2022-09-09T12:58:52.566Z,0.43
2022-09-09T13:01:23.865Z,0.45
2022-09-09T13:06:28.909Z,0.30
2022-09-09T13:09:00.007Z,0.50
2022-09-09T13:11:47.736Z,0.50
2022-09-09T13:14:21.281Z,0.40
2022-09-09T13:16:59.743Z,0.60
2022-09-09T13:19:30.574Z,0.40
2022-09-09T13:21:58.293Z,0.40
2022-09-09T13:24:34.782Z,0.62
2022-09-09T13:27:35.669Z,0.32
2022-09-09T13:30:20.093Z,0.37
2022-09-09T13:32:47.926Z,0.45
2022-09-09T13:35:34.753Z,0.45
2022-09-09T13:38:10.507Z,0.60
2022-09-09T13:40:38.810Z,0.45
2022-09-09T13:43:06.507Z,0.60
2022-09-09T13:45:35.203Z,0.43
2022-09-09T13:48:10.450Z,0.70
2022-09-09T13:50:38.467Z,0.60
2022-09-09T13:53:05.939Z,0.30
2022-09-09T13:55:33.501Z,0.60
2022-09-09T13:58:02.989Z,0.57
2022-09-09T14:00:32.160Z,0.68
2022-09-09T14:03:03.028Z,0.50
2022-09-09T14:05:32.872Z,0.40
2022-09-09T14:08:01.641Z,0.57
2022-09-09T14:10:29.012Z,0.60
2022-09-09T14:12:57.016Z,0.52
2022-09-09T14:15:24.750Z,0.50
2022-09-09T14:17:53.164Z,0.60
2022-09-09T14:20:20.485Z,0.40
2022-09-09T14:22:48.149Z,0.37
2022-09-09T14:25:15.720Z,0.40
2022-09-09T14:27:43.404Z,0.40
2022-09-09T14:30:11.575Z,0.32
2022-09-09T14:32:38.899Z,0.50
2022-09-09T14:35:06.377Z,0.50
2022-09-09T14:37:33.967Z,0.40
2022-09-09T14:40:01.418Z,0.40
2022-09-09T14:42:30.362Z,0.30
2022-09-09T14:44:58.007Z,0.30
2022-09-09T14:47:25.326Z,0.43
2022-09-09T14:49:52.784Z,0.43
2022-09-09T14:52:20.768Z,0.30
2022-09-09T14:54:48.109Z,0.25
2022-09-09T14:57:15.400Z,0.60
2022-09-09T14:59:42.974Z,0.75
2022-09-09T15:02:10.423Z,0.60
2022-09-09T15:04:37.866Z,0.50
2022-09-09T15:07:05.435Z,0.47
2022-09-09T15:09:35.091Z,0.50
2022-09-09T15:12:03.792Z,0.40
2022-09-09T15:14:31.761Z,0.77
2022-09-09T15:16:59.040Z,0.40
2022-09-09T15:19:26.327Z,0.50
2022-09-09T15:21:53.892Z,0.40
2022-09-09T15:24:21.275Z,0.30
2022-09-09T15:26:48.843Z,0.60
2022-09-09T15:29:16.836Z,0.40
2022-09-09T15:31:44.134Z,0.50
2022-09-09T15:34:11.446Z,0.50
2022-09-09T15:36:41.208Z,0.52
2022-09-09T15:39:13.386Z,0.43
2022-09-09T15:41:41.183Z,0.40
2022-09-09T15:44:09.022Z,0.60
2022-09-09T15:46:47.387Z,0.60
2022-09-09T15:49:23.122Z,0.40
2022-09-09T15:51:58.567Z,0.60
2022-09-09T15:54:27.169Z,0.60
2022-09-09T15:56:57.025Z,0.50
2022-09-09T15:59:25.625Z,0.40
2022-09-09T16:01:53.316Z,0.65
2022-09-09T16:04:24.384Z,0.35
2022-09-09T16:06:53.040Z,0.60
2022-09-09T16:09:20.714Z,0.50
2022-09-09T16:11:48.548Z,0.70
2022-09-09T16:14:16.729Z,0.40
2022-09-09T16:16:44.333Z,0.50
2022-09-09T16:19:13.443Z,0.50
2022-09-09T16:21:43.651Z,0.68
2022-09-09T16:24:13.374Z,0.70
2022-09-09T16:26:44.795Z,0.50
2022-09-09T16:29:13.910Z,0.82
2022-09-09T16:31:41.883Z,0.60
2022-09-09T16:34:10.280Z,0.68
2022-09-09T16:36:40.006Z,0.70
2022-09-09T16:39:10.228Z,0.55
2022-09-09T16:41:39.057Z,0.70
2022-09-09T16:44:08.535Z,1.10
2022-09-09T16:46:41.574Z,1.08
2022-09-09T16:49:11.546Z,0.98
